sensor_id;sensor_type;location;lat;lon;timestamp;temperature;humidity
13848;DHT22;6994;49.752;6.094;2023-12-04T00:00:58;1.10;99.90
13848;DHT22;6994;49.752;6.094;2023-12-04T00:03:26;1.00;99.90
13848;DHT22;6994;49.752;6.094;2023-12-04T00:05:54;0.90;99.90
13848;DHT22;6994;49.752;6.094;2023-12-04T00:08:22;0.80;99.90
13848;DHT22;6994;49.752;6.094;2023-12-04T00:10:50;0.80;99.90
13848;DHT22;6994;49.752;6.094;2023-12-04T00:13:18;0.70;99.90
13848;DHT22;6994;49.752;6.094;2023-12-04T00:15:46;0.70;99.90
13848;DHT22;6994;49.752;6.094;2023-12-04T00:18:14;0.90;99.90
13848;DHT22;6994;49.752;6.094;2023-12-04T00:20:42;0.90;99.90
13848;DHT22;6994;49.752;6.094;2023-12-04T00:23:10;0.90;99.90
13848;DHT22;6994;49.752;6.094;2023-12-04T00:25:37;0.90;99.90
13848;DHT22;6994;49.752;6.094;2023-12-04T00:28:04;0.80;99.90
13848;DHT22;6994;49.752;6.094;2023-12-04T00:30:32;0.70;99.90
13848;DHT22;6994;49.752;6.094;2023-12-04T00:33:00;0.60;99.90
13848;DHT22;6994;49.752;6.094;2023-12-04T00:35:28;0.60;99.90
13848;DHT22;6994;49.752;6.094;2023-12-04T00:37:56;0.50;99.90
13848;DHT22;6994;49.752;6.094;2023-12-04T00:40:24;0.40;99.90
13848;DHT22;6994;49.752;6.094;2023-12-04T00:42:52;0.40;99.90
13848;DHT22;6994;49.752;6.094;2023-12-04T00:45:20;0.30;99.90
13848;DHT22;6994;49.752;6.094;2023-12-04T00:47:48;0.30;99.90
13848;DHT22;6994;49.752;6.094;2023-12-04T00:50:16;0.30;99.90
13848;DHT22;6994;49.752;6.094;2023-12-04T00:52:44;0.20;99.90
13848;DHT22;6994;49.752;6.094;2023-12-04T00:55:12;0.20;99.90
13848;DHT22;6994;49.752;6.094;2023-12-04T00:57:40;0.20;99.90
13848;DHT22;6994;49.752;6.094;2023-12-04T01:00:08;0.10;99.90
13848;DHT22;6994;49.752;6.094;2023-12-04T01:02:35;0.10;99.90
13848;DHT22;6994;49.752;6.094;2023-12-04T01:05:02;0.10;99.90
13848;DHT22;6994;49.752;6.094;2023-12-04T01:07:29;0.10;99.90
13848;DHT22;6994;49.752;6.094;2023-12-04T01:09:56;0.00;99.90
13848;DHT22;6994;49.752;6.094;2023-12-04T01:12:24;0.00;99.90
13848;DHT22;6994;49.752;6.094;2023-12-04T01:14:51;0.00;99.90
13848;DHT22;6994;49.752;6.094;2023-12-04T01:17:18;0.00;99.90
13848;DHT22;6994;49.752;6.094;2023-12-04T01:19:45;0.20;99.90
13848;DHT22;6994;49.752;6.094;2023-12-04T01:22:12;0.30;99.90
13848;DHT22;6994;49.752;6.094;2023-12-04T01:24:40;0.30;99.90
13848;DHT22;6994;49.752;6.094;2023-12-04T01:27:07;0.20;99.90
13848;DHT22;6994;49.752;6.094;2023-12-04T01:29:34;0.20;99.90
13848;DHT22;6994;49.752;6.094;2023-12-04T01:32:01;0.10;99.90
13848;DHT22;6994;49.752;6.094;2023-12-04T01:34:29;0.30;99.90
13848;DHT22;6994;49.752;6.094;2023-12-04T01:36:56;0.40;99.90
13848;DHT22;6994;49.752;6.094;2023-12-04T01:39:23;0.30;99.90
13848;DHT22;6994;49.752;6.094;2023-12-04T01:41:50;0.30;99.90
13848;DHT22;6994;49.752;6.094;2023-12-04T01:44:18;0.30;99.90
13848;DHT22;6994;49.752;6.094;2023-12-04T01:46:45;0.20;99.90
13848;DHT22;6994;49.752;6.094;2023-12-04T01:49:12;0.20;99.90
13848;DHT22;6994;49.752;6.094;2023-12-04T01:51:39;0.20;99.90
13848;DHT22;6994;49.752;6.094;2023-12-04T01:54:06;0.20;99.90
13848;DHT22;6994;49.752;6.094;2023-12-04T01:56:34;0.40;99.90
13848;DHT22;6994;49.752;6.094;2023-12-04T01:59:01;0.50;99.90
13848;DHT22;6994;49.752;6.094;2023-12-04T02:01:28;0.70;99.90
13848;DHT22;6994;49.752;6.094;2023-12-04T02:03:55;0.80;99.90
13848;DHT22;6994;49.752;6.094;2023-12-04T02:06:22;1.00;99.90
13848;DHT22;6994;49.752;6.094;2023-12-04T02:08:49;1.00;99.90
13848;DHT22;6994;49.752;6.094;2023-12-04T02:11:17;1.20;99.90
13848;DHT22;6994;49.752;6.094;2023-12-04T02:13:44;1.10;99.90
13848;DHT22;6994;49.752;6.094;2023-12-04T02:16:11;1.30;99.90
13848;DHT22;6994;49.752;6.094;2023-12-04T02:18:38;1.30;99.90
13848;DHT22;6994;49.752;6.094;2023-12-04T02:21:05;1.20;99.90
13848;DHT22;6994;49.752;6.094;2023-12-04T02:23:33;1.00;99.90
13848;DHT22;6994;49.752;6.094;2023-12-04T02:26:10;0.90;99.90
13848;DHT22;6994;49.752;6.094;2023-12-04T02:28:37;0.90;99.90
13848;DHT22;6994;49.752;6.094;2023-12-04T02:31:04;0.80;99.90
13848;DHT22;6994;49.752;6.094;2023-12-04T02:33:31;0.70;99.90
13848;DHT22;6994;49.752;6.094;2023-12-04T02:35:59;0.90;99.90
13848;DHT22;6994;49.752;6.094;2023-12-04T02:38:26;0.90;99.90
13848;DHT22;6994;49.752;6.094;2023-12-04T02:40:53;0.90;99.90
13848;DHT22;6994;49.752;6.094;2023-12-04T02:43:21;0.90;99.90
13848;DHT22;6994;49.752;6.094;2023-12-04T02:45:48;0.80;99.90
13848;DHT22;6994;49.752;6.094;2023-12-04T02:48:15;0.80;99.90
13848;DHT22;6994;49.752;6.094;2023-12-04T02:50:42;0.70;99.90
13848;DHT22;6994;49.752;6.094;2023-12-04T02:53:09;0.70;99.90
13848;DHT22;6994;49.752;6.094;2023-12-04T02:55:37;0.70;99.90
13848;DHT22;6994;49.752;6.094;2023-12-04T02:58:05;0.70;99.90
13848;DHT22;6994;49.752;6.094;2023-12-04T03:00:32;0.60;99.90
13848;DHT22;6994;49.752;6.094;2023-12-04T03:03:00;0.60;99.90
13848;DHT22;6994;49.752;6.094;2023-12-04T03:05:28;0.60;99.90
13848;DHT22;6994;49.752;6.094;2023-12-04T03:07:56;0.60;99.90
13848;DHT22;6994;49.752;6.094;2023-12-04T03:10:23;0.60;99.90
13848;DHT22;6994;49.752;6.094;2023-12-04T03:12:50;0.60;99.90
13848;DHT22;6994;49.752;6.094;2023-12-04T03:15:18;0.60;99.90
13848;DHT22;6994;49.752;6.094;2023-12-04T03:17:46;0.60;99.90
13848;DHT22;6994;49.752;6.094;2023-12-04T03:20:14;0.60;99.90
13848;DHT22;6994;49.752;6.094;2023-12-04T03:22:41;0.60;99.90
13848;DHT22;6994;49.752;6.094;2023-12-04T03:25:08;0.50;99.90
13848;DHT22;6994;49.752;6.094;2023-12-04T03:27:36;0.50;99.90
13848;DHT22;6994;49.752;6.094;2023-12-04T03:30:05;0.50;99.90
13848;DHT22;6994;49.752;6.094;2023-12-04T03:32:32;0.50;99.90
13848;DHT22;6994;49.752;6.094;2023-12-04T03:34:59;0.50;99.90
13848;DHT22;6994;49.752;6.094;2023-12-04T03:37:26;0.50;99.90
13848;DHT22;6994;49.752;6.094;2023-12-04T03:39:54;0.50;99.90
13848;DHT22;6994;49.752;6.094;2023-12-04T03:42:22;0.50;99.90
13848;DHT22;6994;49.752;6.094;2023-12-04T03:44:49;0.50;99.90
13848;DHT22;6994;49.752;6.094;2023-12-04T03:47:16;0.50;99.90
13848;DHT22;6994;49.752;6.094;2023-12-04T03:49:44;0.50;99.90
13848;DHT22;6994;49.752;6.094;2023-12-04T03:52:12;0.50;99.90
13848;DHT22;6994;49.752;6.094;2023-12-04T03:54:40;0.40;99.90
13848;DHT22;6994;49.752;6.094;2023-12-04T03:57:07;0.50;99.90
13848;DHT22;6994;49.752;6.094;2023-12-04T03:59:34;0.40;99.90
13848;DHT22;6994;49.752;6.094;2023-12-04T04:02:02;0.40;99.90
13848;DHT22;6994;49.752;6.094;2023-12-04T04:04:29;0.50;99.90
13848;DHT22;6994;49.752;6.094;2023-12-04T04:06:56;0.40;99.90
13848;DHT22;6994;49.752;6.094;2023-12-04T04:09:23;0.40;99.90
13848;DHT22;6994;49.752;6.094;2023-12-04T04:11:51;0.40;99.90
13848;DHT22;6994;49.752;6.094;2023-12-04T04:14:18;0.50;99.90
13848;DHT22;6994;49.752;6.094;2023-12-04T04:16:45;0.50;99.90
13848;DHT22;6994;49.752;6.094;2023-12-04T04:19:13;0.70;99.90
13848;DHT22;6994;49.752;6.094;2023-12-04T04:21:40;0.80;99.90
13848;DHT22;6994;49.752;6.094;2023-12-04T04:24:07;0.80;99.90
13848;DHT22;6994;49.752;6.094;2023-12-04T04:26:34;0.80;99.90
13848;DHT22;6994;49.752;6.094;2023-12-04T04:29:01;0.80;99.90
13848;DHT22;6994;49.752;6.094;2023-12-04T04:31:29;0.80;99.90
13848;DHT22;6994;49.752;6.094;2023-12-04T04:33:56;0.80;99.90
13848;DHT22;6994;49.752;6.094;2023-12-04T04:36:23;0.80;99.90
13848;DHT22;6994;49.752;6.094;2023-12-04T04:38:50;0.70;99.90
13848;DHT22;6994;49.752;6.094;2023-12-04T04:41:17;0.70;99.90
13848;DHT22;6994;49.752;6.094;2023-12-04T04:43:45;0.80;99.90
13848;DHT22;6994;49.752;6.094;2023-12-04T04:46:13;0.70;99.90
13848;DHT22;6994;49.752;6.094;2023-12-04T04:48:40;0.80;99.90
13848;DHT22;6994;49.752;6.094;2023-12-04T04:51:07;0.80;99.90
13848;DHT22;6994;49.752;6.094;2023-12-04T04:53:34;0.80;99.90
13848;DHT22;6994;49.752;6.094;2023-12-04T04:56:02;0.80;99.90
13848;DHT22;6994;49.752;6.094;2023-12-04T04:58:29;0.80;99.90
13848;DHT22;6994;49.752;6.094;2023-12-04T05:00:56;0.80;99.90
13848;DHT22;6994;49.752;6.094;2023-12-04T05:03:23;0.80;99.90
13848;DHT22;6994;49.752;6.094;2023-12-04T05:05:50;0.80;99.90
13848;DHT22;6994;49.752;6.094;2023-12-04T05:08:18;0.80;99.90
13848;DHT22;6994;49.752;6.094;2023-12-04T05:10:46;0.80;99.90
13848;DHT22;6994;49.752;6.094;2023-12-04T05:13:14;0.80;99.90
13848;DHT22;6994;49.752;6.094;2023-12-04T05:15:41;0.80;99.90
13848;DHT22;6994;49.752;6.094;2023-12-04T05:18:08;0.90;99.90
13848;DHT22;6994;49.752;6.094;2023-12-04T05:20:36;0.90;99.90
13848;DHT22;6994;49.752;6.094;2023-12-04T05:23:03;0.90;99.90
13848;DHT22;6994;49.752;6.094;2023-12-04T05:25:31;1.00;99.90
13848;DHT22;6994;49.752;6.094;2023-12-04T05:27:59;1.00;99.90
13848;DHT22;6994;49.752;6.094;2023-12-04T05:30:27;1.00;99.90
13848;DHT22;6994;49.752;6.094;2023-12-04T05:32:55;1.00;99.90
13848;DHT22;6994;49.752;6.094;2023-12-04T05:35:22;1.00;99.90
13848;DHT22;6994;49.752;6.094;2023-12-04T05:37:49;1.00;99.90
13848;DHT22;6994;49.752;6.094;2023-12-04T05:40:17;1.10;99.90
13848;DHT22;6994;49.752;6.094;2023-12-04T05:42:45;1.30;99.90
13848;DHT22;6994;49.752;6.094;2023-12-04T05:45:13;1.40;99.90
13848;DHT22;6994;49.752;6.094;2023-12-04T05:47:41;1.40;99.90
13848;DHT22;6994;49.752;6.094;2023-12-04T05:50:09;1.40;99.90
13848;DHT22;6994;49.752;6.094;2023-12-04T05:52:36;1.40;99.90
13848;DHT22;6994;49.752;6.094;2023-12-04T05:55:04;1.30;99.90
13848;DHT22;6994;49.752;6.094;2023-12-04T05:57:31;1.30;99.90
13848;DHT22;6994;49.752;6.094;2023-12-04T05:59:58;1.30;99.90
13848;DHT22;6994;49.752;6.094;2023-12-04T06:02:25;1.40;99.90
13848;DHT22;6994;49.752;6.094;2023-12-04T06:04:53;1.50;99.90
13848;DHT22;6994;49.752;6.094;2023-12-04T06:07:21;1.50;99.90
13848;DHT22;6994;49.752;6.094;2023-12-04T06:09:49;1.40;99.90
13848;DHT22;6994;49.752;6.094;2023-12-04T06:12:16;1.40;99.90
13848;DHT22;6994;49.752;6.094;2023-12-04T06:14:44;1.40;99.90
13848;DHT22;6994;49.752;6.094;2023-12-04T06:17:12;1.30;99.90
13848;DHT22;6994;49.752;6.094;2023-12-04T06:19:40;1.30;99.90
13848;DHT22;6994;49.752;6.094;2023-12-04T06:22:07;1.30;99.90
13848;DHT22;6994;49.752;6.094;2023-12-04T06:24:34;1.30;99.90
13848;DHT22;6994;49.752;6.094;2023-12-04T06:27:01;1.30;99.90
13848;DHT22;6994;49.752;6.094;2023-12-04T06:29:29;1.30;99.90
13848;DHT22;6994;49.752;6.094;2023-12-04T06:31:57;1.30;99.90
13848;DHT22;6994;49.752;6.094;2023-12-04T06:34:24;1.30;99.90
13848;DHT22;6994;49.752;6.094;2023-12-04T06:36:51;1.30;99.90
13848;DHT22;6994;49.752;6.094;2023-12-04T06:39:18;1.30;99.90
13848;DHT22;6994;49.752;6.094;2023-12-04T06:41:46;1.30;99.90
13848;DHT22;6994;49.752;6.094;2023-12-04T06:44:13;1.30;99.90
13848;DHT22;6994;49.752;6.094;2023-12-04T06:46:41;1.30;99.90
13848;DHT22;6994;49.752;6.094;2023-12-04T06:49:07;1.40;99.90
13848;DHT22;6994;49.752;6.094;2023-12-04T06:51:34;1.40;99.90
13848;DHT22;6994;49.752;6.094;2023-12-04T06:54:02;1.60;99.90
13848;DHT22;6994;49.752;6.094;2023-12-04T06:56:29;1.70;99.90
13848;DHT22;6994;49.752;6.094;2023-12-04T06:58:56;1.70;99.90
13848;DHT22;6994;49.752;6.094;2023-12-04T07:01:23;1.60;99.90
13848;DHT22;6994;49.752;6.094;2023-12-04T07:03:50;1.60;99.90
13848;DHT22;6994;49.752;6.094;2023-12-04T07:06:18;1.50;99.90
13848;DHT22;6994;49.752;6.094;2023-12-04T07:08:45;1.70;99.90
13848;DHT22;6994;49.752;6.094;2023-12-04T07:11:12;1.80;99.90
13848;DHT22;6994;49.752;6.094;2023-12-04T07:13:40;2.00;99.90
13848;DHT22;6994;49.752;6.094;2023-12-04T07:16:06;2.00;99.90
13848;DHT22;6994;49.752;6.094;2023-12-04T07:18:34;2.20;99.90
13848;DHT22;6994;49.752;6.094;2023-12-04T07:21:01;2.20;99.90
13848;DHT22;6994;49.752;6.094;2023-12-04T07:23:28;2.10;99.90
13848;DHT22;6994;49.752;6.094;2023-12-04T07:25:55;2.00;99.90
13848;DHT22;6994;49.752;6.094;2023-12-04T07:28:22;1.90;99.90
13848;DHT22;6994;49.752;6.094;2023-12-04T07:30:50;1.80;99.90
13848;DHT22;6994;49.752;6.094;2023-12-04T07:33:17;1.80;99.90
13848;DHT22;6994;49.752;6.094;2023-12-04T07:35:44;2.00;99.90
13848;DHT22;6994;49.752;6.094;2023-12-04T07:38:11;2.00;99.90
13848;DHT22;6994;49.752;6.094;2023-12-04T07:40:38;2.00;99.90
13848;DHT22;6994;49.752;6.094;2023-12-04T07:43:06;1.90;99.90
13848;DHT22;6994;49.752;6.094;2023-12-04T07:45:33;1.90;99.90
13848;DHT22;6994;49.752;6.094;2023-12-04T07:48:00;1.90;99.90
13848;DHT22;6994;49.752;6.094;2023-12-04T07:50:28;1.80;99.90
13848;DHT22;6994;49.752;6.094;2023-12-04T07:52:55;1.80;99.90
13848;DHT22;6994;49.752;6.094;2023-12-04T07:55:22;1.80;99.90
13848;DHT22;6994;49.752;6.094;2023-12-04T07:57:50;1.80;99.90
13848;DHT22;6994;49.752;6.094;2023-12-04T08:00:17;2.00;99.90
13848;DHT22;6994;49.752;6.094;2023-12-04T08:02:44;2.10;99.90
13848;DHT22;6994;49.752;6.094;2023-12-04T08:05:12;2.40;99.90
13848;DHT22;6994;49.752;6.094;2023-12-04T08:07:39;2.40;99.90
13848;DHT22;6994;49.752;6.094;2023-12-04T08:10:07;2.40;99.90
13848;DHT22;6994;49.752;6.094;2023-12-04T08:12:34;2.30;99.90
13848;DHT22;6994;49.752;6.094;2023-12-04T08:15:02;2.30;99.90
13848;DHT22;6994;49.752;6.094;2023-12-04T08:17:30;2.30;99.90
13848;DHT22;6994;49.752;6.094;2023-12-04T08:19:57;2.30;99.90
13848;DHT22;6994;49.752;6.094;2023-12-04T08:22:24;2.30;99.90
13848;DHT22;6994;49.752;6.094;2023-12-04T08:24:51;2.30;99.90
13848;DHT22;6994;49.752;6.094;2023-12-04T08:27:19;2.50;99.90
13848;DHT22;6994;49.752;6.094;2023-12-04T08:29:46;2.60;99.90
13848;DHT22;6994;49.752;6.094;2023-12-04T08:32:13;2.60;99.90
13848;DHT22;6994;49.752;6.094;2023-12-04T08:34:40;2.60;99.90
13848;DHT22;6994;49.752;6.094;2023-12-04T08:37:07;2.60;99.90
13848;DHT22;6994;49.752;6.094;2023-12-04T08:39:35;2.60;99.90
13848;DHT22;6994;49.752;6.094;2023-12-04T08:42:02;2.80;99.90
13848;DHT22;6994;49.752;6.094;2023-12-04T08:44:29;2.80;99.90
13848;DHT22;6994;49.752;6.094;2023-12-04T08:46:56;2.70;99.90
13848;DHT22;6994;49.752;6.094;2023-12-04T08:49:23;2.60;99.90
13848;DHT22;6994;49.752;6.094;2023-12-04T08:51:53;2.60;99.90
13848;DHT22;6994;49.752;6.094;2023-12-04T08:54:21;2.60;99.90
13848;DHT22;6994;49.752;6.094;2023-12-04T08:56:48;2.40;99.90
13848;DHT22;6994;49.752;6.094;2023-12-04T08:59:15;2.50;99.90
13848;DHT22;6994;49.752;6.094;2023-12-04T09:01:42;2.50;99.90
13848;DHT22;6994;49.752;6.094;2023-12-04T09:04:09;2.40;99.90
13848;DHT22;6994;49.752;6.094;2023-12-04T09:06:37;2.20;99.90
13848;DHT22;6994;49.752;6.094;2023-12-04T09:09:04;2.10;99.90
13848;DHT22;6994;49.752;6.094;2023-12-04T09:11:31;2.00;99.90
13848;DHT22;6994;49.752;6.094;2023-12-04T09:13:58;1.90;99.90
13848;DHT22;6994;49.752;6.094;2023-12-04T09:16:25;1.80;99.90
13848;DHT22;6994;49.752;6.094;2023-12-04T09:18:53;1.80;99.90
13848;DHT22;6994;49.752;6.094;2023-12-04T09:21:20;1.70;99.90
13848;DHT22;6994;49.752;6.094;2023-12-04T09:23:47;1.90;99.90
13848;DHT22;6994;49.752;6.094;2023-12-04T09:26:14;1.90;99.90
13848;DHT22;6994;49.752;6.094;2023-12-04T09:28:41;1.90;99.90
13848;DHT22;6994;49.752;6.094;2023-12-04T09:31:09;1.80;99.90
13848;DHT22;6994;49.752;6.094;2023-12-04T09:33:36;1.80;99.90
13848;DHT22;6994;49.752;6.094;2023-12-04T09:36:03;1.70;99.90
13848;DHT22;6994;49.752;6.094;2023-12-04T09:38:30;1.90;99.90
13848;DHT22;6994;49.752;6.094;2023-12-04T09:41:01;1.90;99.90
13848;DHT22;6994;49.752;6.094;2023-12-04T09:43:27;1.90;99.90
13848;DHT22;6994;49.752;6.094;2023-12-04T09:45:53;1.80;99.90
13848;DHT22;6994;49.752;6.094;2023-12-04T09:48:21;1.80;99.90
13848;DHT22;6994;49.752;6.094;2023-12-04T09:50:49;1.70;99.90
13848;DHT22;6994;49.752;6.094;2023-12-04T09:53:16;1.70;99.90
13848;DHT22;6994;49.752;6.094;2023-12-04T09:55:44;1.70;99.90
13848;DHT22;6994;49.752;6.094;2023-12-04T09:58:11;1.70;99.90
13848;DHT22;6994;49.752;6.094;2023-12-04T10:00:38;1.70;99.90
13848;DHT22;6994;49.752;6.094;2023-12-04T10:03:05;1.60;99.90
13848;DHT22;6994;49.752;6.094;2023-12-04T10:05:32;1.60;99.90
13848;DHT22;6994;49.752;6.094;2023-12-04T10:08:00;1.60;99.90
13848;DHT22;6994;49.752;6.094;2023-12-04T10:10:27;1.70;99.90
13848;DHT22;6994;49.752;6.094;2023-12-04T10:12:54;1.90;99.90
13848;DHT22;6994;49.752;6.094;2023-12-04T10:15:21;2.00;99.90
13848;DHT22;6994;49.752;6.094;2023-12-04T10:17:49;2.20;99.90
13848;DHT22;6994;49.752;6.094;2023-12-04T10:20:16;2.20;99.90
13848;DHT22;6994;49.752;6.094;2023-12-04T10:25:22;2.10;99.90
13848;DHT22;6994;49.752;6.094;2023-12-04T10:27:49;2.00;99.90
13848;DHT22;6994;49.752;6.094;2023-12-04T10:30:28;1.90;99.90
13848;DHT22;6994;49.752;6.094;2023-12-04T10:33:06;1.90;99.90
13848;DHT22;6994;49.752;6.094;2023-12-04T10:35:29;2.10;99.90
13848;DHT22;6994;49.752;6.094;2023-12-04T10:37:55;2.10;99.90
13848;DHT22;6994;49.752;6.094;2023-12-04T10:40:26;2.10;99.90
13848;DHT22;6994;49.752;6.094;2023-12-04T10:43:14;2.00;99.90
13848;DHT22;6994;49.752;6.094;2023-12-04T10:45:39;2.00;99.90
13848;DHT22;6994;49.752;6.094;2023-12-04T10:48:06;2.00;99.90
13848;DHT22;6994;49.752;6.094;2023-12-04T10:50:33;2.00;99.90
13848;DHT22;6994;49.752;6.094;2023-12-04T10:53:03;2.00;99.90
13848;DHT22;6994;49.752;6.094;2023-12-04T10:55:33;2.00;99.90
13848;DHT22;6994;49.752;6.094;2023-12-04T10:58:10;2.20;99.90
13848;DHT22;6994;49.752;6.094;2023-12-04T11:00:46;2.20;99.90
13848;DHT22;6994;49.752;6.094;2023-12-04T11:03:24;2.20;99.90
13848;DHT22;6994;49.752;6.094;2023-12-04T11:05:55;2.40;99.90
13848;DHT22;6994;49.752;6.094;2023-12-04T11:08:19;2.40;99.90
13848;DHT22;6994;49.752;6.094;2023-12-04T11:11:03;2.30;99.90
13848;DHT22;6994;49.752;6.094;2023-12-04T11:13:34;2.30;99.90
13848;DHT22;6994;49.752;6.094;2023-12-04T11:16:07;2.20;99.90
13848;DHT22;6994;49.752;6.094;2023-12-04T11:18:31;2.20;99.90
13848;DHT22;6994;49.752;6.094;2023-12-04T11:20:58;2.40;99.90
13848;DHT22;6994;49.752;6.094;2023-12-04T11:23:24;2.40;99.90
13848;DHT22;6994;49.752;6.094;2023-12-04T11:25:52;2.50;99.90
13848;DHT22;6994;49.752;6.094;2023-12-04T11:28:20;2.50;99.90
13848;DHT22;6994;49.752;6.094;2023-12-04T11:30:48;2.50;99.90
13848;DHT22;6994;49.752;6.094;2023-12-04T11:33:16;2.50;99.90
13848;DHT22;6994;49.752;6.094;2023-12-04T11:35:43;2.50;99.90
13848;DHT22;6994;49.752;6.094;2023-12-04T11:38:13;2.50;99.90
13848;DHT22;6994;49.752;6.094;2023-12-04T11:40:39;2.50;99.90
13848;DHT22;6994;49.752;6.094;2023-12-04T11:43:28;2.50;99.90
13848;DHT22;6994;49.752;6.094;2023-12-04T11:45:51;2.40;99.90
13848;DHT22;6994;49.752;6.094;2023-12-04T11:48:22;2.40;99.90
13848;DHT22;6994;49.752;6.094;2023-12-04T11:50:45;2.40;99.90
13848;DHT22;6994;49.752;6.094;2023-12-04T11:53:13;2.50;99.90
13848;DHT22;6994;49.752;6.094;2023-12-04T11:55:40;2.50;99.90
13848;DHT22;6994;49.752;6.094;2023-12-04T11:58:11;2.60;99.90
13848;DHT22;6994;49.752;6.094;2023-12-04T12:00:38;2.60;99.90
13848;DHT22;6994;49.752;6.094;2023-12-04T12:03:07;2.70;99.90
13848;DHT22;6994;49.752;6.094;2023-12-04T12:05:35;2.70;99.90
13848;DHT22;6994;49.752;6.094;2023-12-04T12:08:02;2.70;99.90
13848;DHT22;6994;49.752;6.094;2023-12-04T12:10:30;2.80;99.90
13848;DHT22;6994;49.752;6.094;2023-12-04T12:12:58;2.80;99.90
13848;DHT22;6994;49.752;6.094;2023-12-04T12:15:26;2.90;99.90
13848;DHT22;6994;49.752;6.094;2023-12-04T12:17:54;2.90;99.90
13848;DHT22;6994;49.752;6.094;2023-12-04T12:20:21;2.90;99.90
13848;DHT22;6994;49.752;6.094;2023-12-04T12:22:48;3.00;99.90
13848;DHT22;6994;49.752;6.094;2023-12-04T12:25:17;3.00;99.90
13848;DHT22;6994;49.752;6.094;2023-12-04T12:27:43;3.00;99.90
13848;DHT22;6994;49.752;6.094;2023-12-04T12:30:10;3.10;99.90
13848;DHT22;6994;49.752;6.094;2023-12-04T12:32:38;3.10;99.90
13848;DHT22;6994;49.752;6.094;2023-12-04T12:35:06;3.00;99.90
13848;DHT22;6994;49.752;6.094;2023-12-04T12:37:33;3.00;99.90
13848;DHT22;6994;49.752;6.094;2023-12-04T12:40:01;3.00;99.90
13848;DHT22;6994;49.752;6.094;2023-12-04T12:42:29;3.00;99.90
13848;DHT22;6994;49.752;6.094;2023-12-04T12:44:59;3.00;99.90
13848;DHT22;6994;49.752;6.094;2023-12-04T12:47:25;3.00;99.90
13848;DHT22;6994;49.752;6.094;2023-12-04T12:49:53;3.00;99.90
13848;DHT22;6994;49.752;6.094;2023-12-04T12:52:21;3.00;99.90
13848;DHT22;6994;49.752;6.094;2023-12-04T12:54:49;3.00;99.90
13848;DHT22;6994;49.752;6.094;2023-12-04T12:57:17;3.00;99.90
13848;DHT22;6994;49.752;6.094;2023-12-04T12:59:45;2.90;99.90
13848;DHT22;6994;49.752;6.094;2023-12-04T13:02:12;2.90;99.90
13848;DHT22;6994;49.752;6.094;2023-12-04T13:04:42;2.90;99.90
13848;DHT22;6994;49.752;6.094;2023-12-04T13:07:09;2.80;99.90
13848;DHT22;6994;49.752;6.094;2023-12-04T13:09:36;2.70;99.90
13848;DHT22;6994;49.752;6.094;2023-12-04T13:12:04;2.60;99.90
13848;DHT22;6994;49.752;6.094;2023-12-04T13:14:31;2.50;99.90
13848;DHT22;6994;49.752;6.094;2023-12-04T13:16:59;2.40;99.90
13848;DHT22;6994;49.752;6.094;2023-12-04T13:19:26;2.40;99.90
13848;DHT22;6994;49.752;6.094;2023-12-04T13:21:53;2.40;99.90
13848;DHT22;6994;49.752;6.094;2023-12-04T13:24:20;2.40;99.90
13848;DHT22;6994;49.752;6.094;2023-12-04T13:26:47;2.40;99.90
13848;DHT22;6994;49.752;6.094;2023-12-04T13:29:15;2.40;99.90
13848;DHT22;6994;49.752;6.094;2023-12-04T13:31:42;2.50;99.90
13848;DHT22;6994;49.752;6.094;2023-12-04T13:34:10;2.50;99.90
13848;DHT22;6994;49.752;6.094;2023-12-04T13:36:37;2.50;99.90
13848;DHT22;6994;49.752;6.094;2023-12-04T13:39:04;2.60;99.90
13848;DHT22;6994;49.752;6.094;2023-12-04T13:41:31;2.60;99.90
13848;DHT22;6994;49.752;6.094;2023-12-04T13:44:16;2.60;99.90
13848;DHT22;6994;49.752;6.094;2023-12-04T13:46:44;2.70;99.90
13848;DHT22;6994;49.752;6.094;2023-12-04T13:49:11;2.70;99.90
13848;DHT22;6994;49.752;6.094;2023-12-04T13:51:38;2.70;99.90
13848;DHT22;6994;49.752;6.094;2023-12-04T13:54:05;2.80;99.90
13848;DHT22;6994;49.752;6.094;2023-12-04T13:56:32;2.80;99.90
13848;DHT22;6994;49.752;6.094;2023-12-04T13:59:00;2.80;99.90
13848;DHT22;6994;49.752;6.094;2023-12-04T14:01:27;2.90;99.90
13848;DHT22;6994;49.752;6.094;2023-12-04T14:03:54;2.90;99.90
13848;DHT22;6994;49.752;6.094;2023-12-04T14:06:21;2.90;99.90
13848;DHT22;6994;49.752;6.094;2023-12-04T14:08:49;3.00;99.90
13848;DHT22;6994;49.752;6.094;2023-12-04T14:11:16;2.90;99.90
13848;DHT22;6994;49.752;6.094;2023-12-04T14:13:44;3.00;99.90
13848;DHT22;6994;49.752;6.094;2023-12-04T14:16:12;3.10;99.90
13848;DHT22;6994;49.752;6.094;2023-12-04T14:18:40;3.10;99.90
13848;DHT22;6994;49.752;6.094;2023-12-04T14:21:10;3.10;99.90
13848;DHT22;6994;49.752;6.094;2023-12-04T14:23:37;3.10;99.90
13848;DHT22;6994;49.752;6.094;2023-12-04T14:26:05;3.10;99.90
13848;DHT22;6994;49.752;6.094;2023-12-04T14:28:32;3.20;99.90
13848;DHT22;6994;49.752;6.094;2023-12-04T14:30:59;3.20;99.90
13848;DHT22;6994;49.752;6.094;2023-12-04T14:33:26;3.40;99.90
13848;DHT22;6994;49.752;6.094;2023-12-04T14:35:53;3.50;99.90
13848;DHT22;6994;49.752;6.094;2023-12-04T14:38:21;3.70;99.90
13848;DHT22;6994;49.752;6.094;2023-12-04T14:40:48;3.80;99.90
13848;DHT22;6994;49.752;6.094;2023-12-04T14:43:15;3.70;99.90
13848;DHT22;6994;49.752;6.094;2023-12-04T14:45:42;3.70;99.90
13848;DHT22;6994;49.752;6.094;2023-12-04T14:48:09;3.80;99.90
13848;DHT22;6994;49.752;6.094;2023-12-04T14:50:37;3.80;99.90
13848;DHT22;6994;49.752;6.094;2023-12-04T14:53:04;3.80;99.90
13848;DHT22;6994;49.752;6.094;2023-12-04T14:55:37;3.70;99.90
13848;DHT22;6994;49.752;6.094;2023-12-04T14:58:13;3.90;99.90
13848;DHT22;6994;49.752;6.094;2023-12-04T15:00:55;3.90;99.90
13848;DHT22;6994;49.752;6.094;2023-12-04T15:03:25;3.80;99.90
13848;DHT22;6994;49.752;6.094;2023-12-04T15:05:57;4.00;99.90
13848;DHT22;6994;49.752;6.094;2023-12-04T15:08:40;3.90;99.90
13848;DHT22;6994;49.752;6.094;2023-12-04T15:11:25;3.90;99.90
13848;DHT22;6994;49.752;6.094;2023-12-04T15:14:10;3.80;99.90
13848;DHT22;6994;49.752;6.094;2023-12-04T15:16:56;3.70;99.90
13848;DHT22;6994;49.752;6.094;2023-12-04T15:19:23;3.60;99.90
13848;DHT22;6994;49.752;6.094;2023-12-04T15:22:02;3.60;99.90
13848;DHT22;6994;49.752;6.094;2023-12-04T15:24:29;3.50;99.90
13848;DHT22;6994;49.752;6.094;2023-12-04T15:26:57;3.50;99.90
13848;DHT22;6994;49.752;6.094;2023-12-04T15:29:24;3.50;99.90
13848;DHT22;6994;49.752;6.094;2023-12-04T15:31:51;3.50;99.90
13848;DHT22;6994;49.752;6.094;2023-12-04T15:34:18;3.50;99.90
13848;DHT22;6994;49.752;6.094;2023-12-04T15:36:46;3.50;99.90
13848;DHT22;6994;49.752;6.094;2023-12-04T15:39:13;3.50;99.90
13848;DHT22;6994;49.752;6.094;2023-12-04T15:41:41;3.50;99.90
13848;DHT22;6994;49.752;6.094;2023-12-04T15:44:09;3.50;99.90
13848;DHT22;6994;49.752;6.094;2023-12-04T15:46:37;3.50;99.90
13848;DHT22;6994;49.752;6.094;2023-12-04T15:49:05;3.50;99.90
13848;DHT22;6994;49.752;6.094;2023-12-04T15:51:33;3.50;99.90
13848;DHT22;6994;49.752;6.094;2023-12-04T15:54:00;3.50;99.90
13848;DHT22;6994;49.752;6.094;2023-12-04T15:56:27;3.60;99.90
13848;DHT22;6994;49.752;6.094;2023-12-04T15:58:55;3.60;99.90
13848;DHT22;6994;49.752;6.094;2023-12-04T16:01:23;3.60;99.90
13848;DHT22;6994;49.752;6.094;2023-12-04T16:03:50;3.60;99.90
13848;DHT22;6994;49.752;6.094;2023-12-04T16:06:17;3.60;99.90
13848;DHT22;6994;49.752;6.094;2023-12-04T16:08:45;3.70;99.90